sensor_id;sensor_type;location;lat;lon;timestamp;pressure;altitude;pressure_sealevel;temperature;humidity
71424;BME280;59240;51.370;-0.486;2024-02-15T00:01:32;101185.00;;;13.75;100.00
71424;BME280;59240;51.370;-0.486;2024-02-15T00:06:28;101174.59;;;13.72;100.00
71424;BME280;59240;51.370;-0.486;2024-02-15T00:11:25;101167.72;;;13.69;100.00
71424;BME280;59240;51.370;-0.486;2024-02-15T00:16:22;101174.59;;;13.72;100.00
71424;BME280;59240;51.370;-0.486;2024-02-15T00:21:19;101192.75;;;13.78;100.00
71424;BME280;59240;51.370;-0.486;2024-02-15T00:26:16;101182.84;;;13.89;100.00
71424;BME280;59240;51.370;-0.486;2024-02-15T00:31:13;101176.81;;;13.87;100.00
71424;BME280;59240;51.370;-0.486;2024-02-15T00:36:10;101191.69;;;13.85;100.00
71424;BME280;59240;51.370;-0.486;2024-02-15T00:41:07;101180.56;;;13.77;100.00
71424;BME280;59240;51.370;-0.486;2024-02-15T00:46:04;101184.00;;;13.79;100.00
71424;BME280;59240;51.370;-0.486;2024-02-15T00:51:01;101200.53;;;13.81;100.00
71424;BME280;59240;51.370;-0.486;2024-02-15T00:55:58;101196.09;;;13.83;100.00
71424;BME280;59240;51.370;-0.486;2024-02-15T01:00:55;101183.94;;;13.82;100.00
71424;BME280;59240;51.370;-0.486;2024-02-15T01:05:52;101164.88;;;13.77;100.00
71424;BME280;59240;51.370;-0.486;2024-02-15T01:10:49;101178.50;;;13.88;100.00
71424;BME280;59240;51.370;-0.486;2024-02-15T01:15:47;101169.75;;;13.89;100.00
71424;BME280;59240;51.370;-0.486;2024-02-15T01:20:43;101155.56;;;13.96;100.00
71424;BME280;59240;51.370;-0.486;2024-02-15T01:25:41;101152.94;;;13.96;100.00
71424;BME280;59240;51.370;-0.486;2024-02-15T01:30:38;101147.47;;;14.04;100.00
71424;BME280;59240;51.370;-0.486;2024-02-15T01:35:35;101152.75;;;14.02;100.00
71424;BME280;59240;51.370;-0.486;2024-02-15T01:40:32;101156.13;;;14.06;100.00
71424;BME280;59240;51.370;-0.486;2024-02-15T01:45:29;101145.66;;;14.06;100.00
71424;BME280;59240;51.370;-0.486;2024-02-15T01:50:26;101157.09;;;14.03;100.00
71424;BME280;59240;51.370;-0.486;2024-02-15T01:55:25;101149.53;;;13.92;100.00
71424;BME280;59240;51.370;-0.486;2024-02-15T02:00:22;101144.91;;;14.02;100.00
71424;BME280;59240;51.370;-0.486;2024-02-15T02:05:21;101124.88;;;14.00;100.00
71424;BME280;59240;51.370;-0.486;2024-02-15T02:10:18;101135.34;;;14.01;100.00
71424;BME280;59240;51.370;-0.486;2024-02-15T02:15:15;101116.16;;;13.99;100.00
71424;BME280;59240;51.370;-0.486;2024-02-15T02:20:11;101097.94;;;13.96;100.00
71424;BME280;59240;51.370;-0.486;2024-02-15T02:25:11;101115.38;;;13.97;100.00
71424;BME280;59240;51.370;-0.486;2024-02-15T02:30:14;101110.25;;;13.92;100.00
71424;BME280;59240;51.370;-0.486;2024-02-15T02:35:12;101100.78;;;13.88;100.00
71424;BME280;59240;51.370;-0.486;2024-02-15T02:40:09;101102.88;;;13.77;100.00
71424;BME280;59240;51.370;-0.486;2024-02-15T02:45:06;101095.81;;;13.79;100.00
71424;BME280;59240;51.370;-0.486;2024-02-15T02:50:03;101087.94;;;13.81;100.00
71424;BME280;59240;51.370;-0.486;2024-02-15T02:55:00;101075.78;;;13.78;100.00
71424;BME280;59240;51.370;-0.486;2024-02-15T02:59:57;101078.56;;;13.74;100.00
71424;BME280;59240;51.370;-0.486;2024-02-15T03:04:54;101043.84;;;13.67;100.00
71424;BME280;59240;51.370;-0.486;2024-02-15T03:09:51;101068.69;;;13.82;100.00
71424;BME280;59240;51.370;-0.486;2024-02-15T03:14:48;101067.00;;;13.81;100.00
71424;BME280;59240;51.370;-0.486;2024-02-15T03:19:45;101075.66;;;13.83;100.00
71424;BME280;59240;51.370;-0.486;2024-02-15T03:24:42;101061.69;;;13.82;100.00
71424;BME280;59240;51.370;-0.486;2024-02-15T03:29:38;101054.69;;;13.83;100.00
71424;BME280;59240;51.370;-0.486;2024-02-15T03:34:35;101050.25;;;13.86;100.00
71424;BME280;59240;51.370;-0.486;2024-02-15T03:39:32;101048.47;;;13.87;100.00
71424;BME280;59240;51.370;-0.486;2024-02-15T03:44:30;101058.09;;;13.86;100.00
71424;BME280;59240;51.370;-0.486;2024-02-15T03:49:27;101049.34;;;13.86;100.00
71424;BME280;59240;51.370;-0.486;2024-02-15T03:54:25;101033.56;;;13.89;100.00
71424;BME280;59240;51.370;-0.486;2024-02-15T03:59:22;101056.75;;;13.73;100.00
71424;BME280;59240;51.370;-0.486;2024-02-15T04:04:23;101050.78;;;13.96;100.00
71424;BME280;59240;51.370;-0.486;2024-02-15T04:09:20;101019.63;;;13.88;100.00
71424;BME280;59240;51.370;-0.486;2024-02-15T04:14:17;101032.31;;;14.01;100.00
71424;BME280;59240;51.370;-0.486;2024-02-15T04:19:15;101013.34;;;13.94;100.00
71424;BME280;59240;51.370;-0.486;2024-02-15T04:24:12;101036.97;;;13.91;100.00
71424;BME280;59240;51.370;-0.486;2024-02-15T04:29:08;101036.06;;;13.92;100.00
71424;BME280;59240;51.370;-0.486;2024-02-15T04:34:07;101026.06;;;14.05;100.00
71424;BME280;59240;51.370;-0.486;2024-02-15T04:39:06;101036.28;;;14.12;100.00
71424;BME280;59240;51.370;-0.486;2024-02-15T04:44:03;101015.25;;;14.15;100.00
71424;BME280;59240;51.370;-0.486;2024-02-15T04:49:00;101013.41;;;14.17;100.00
71424;BME280;59240;51.370;-0.486;2024-02-15T04:53:59;101023.69;;;14.23;100.00
71424;BME280;59240;51.370;-0.486;2024-02-15T04:58:58;101006.47;;;14.16;100.00
71424;BME280;59240;51.370;-0.486;2024-02-15T05:03:55;101032.16;;;14.32;100.00
71424;BME280;59240;51.370;-0.486;2024-02-15T05:08:52;101029.47;;;14.35;100.00
71424;BME280;59240;51.370;-0.486;2024-02-15T05:13:49;101025.00;;;14.37;100.00
71424;BME280;59240;51.370;-0.486;2024-02-15T05:18:48;101026.59;;;14.41;100.00
71424;BME280;59240;51.370;-0.486;2024-02-15T05:23:46;101009.06;;;14.43;100.00
71424;BME280;59240;51.370;-0.486;2024-02-15T05:28:43;101009.00;;;14.46;100.00
71424;BME280;59240;51.370;-0.486;2024-02-15T05:33:40;101014.16;;;14.49;100.00
71424;BME280;59240;51.370;-0.486;2024-02-15T05:38:41;101025.47;;;14.49;100.00
71424;BME280;59240;51.370;-0.486;2024-02-15T05:43:39;101021.19;;;14.47;100.00
71424;BME280;59240;51.370;-0.486;2024-02-15T05:48:38;101013.47;;;14.42;100.00
71424;BME280;59240;51.370;-0.486;2024-02-15T05:53:35;101014.88;;;14.53;100.00
71424;BME280;59240;51.370;-0.486;2024-02-15T05:58:33;100986.41;;;14.42;100.00
71424;BME280;59240;51.370;-0.486;2024-02-15T06:03:33;101003.91;;;14.40;100.00
71424;BME280;59240;51.370;-0.486;2024-02-15T06:08:30;101006.31;;;14.47;100.00
71424;BME280;59240;51.370;-0.486;2024-02-15T06:13:28;101002.84;;;14.45;100.00
71424;BME280;59240;51.370;-0.486;2024-02-15T06:18:28;100993.44;;;14.40;100.00
71424;BME280;59240;51.370;-0.486;2024-02-15T06:23:26;101011.84;;;14.38;100.00
71424;BME280;59240;51.370;-0.486;2024-02-15T06:28:26;100994.34;;;14.14;100.00
71424;BME280;59240;51.370;-0.486;2024-02-15T06:33:42;101005.69;;;14.14;100.00
71424;BME280;59240;51.370;-0.486;2024-02-15T06:38:58;100996.00;;;14.16;100.00
71424;BME280;59240;51.370;-0.486;2024-02-15T06:44:13;100979.75;;;14.05;100.00
71424;BME280;59240;51.370;-0.486;2024-02-15T06:49:10;100997.16;;;14.08;100.00
71424;BME280;59240;51.370;-0.486;2024-02-15T06:54:07;100981.53;;;14.05;100.00
71424;BME280;59240;51.370;-0.486;2024-02-15T06:59:05;100999.59;;;14.14;100.00
71424;BME280;59240;51.370;-0.486;2024-02-15T07:04:02;100994.69;;;14.03;100.00
71424;BME280;59240;51.370;-0.486;2024-02-15T07:08:59;101001.75;;;14.01;100.00
71424;BME280;59240;51.370;-0.486;2024-02-15T07:13:56;100994.03;;;13.96;100.00
71424;BME280;59240;51.370;-0.486;2024-02-15T07:18:53;100986.31;;;13.92;100.00
71424;BME280;59240;51.370;-0.486;2024-02-15T07:23:50;101000.44;;;13.88;100.00
71424;BME280;59240;51.370;-0.486;2024-02-15T07:28:48;101009.28;;;13.84;100.00
71424;BME280;59240;51.370;-0.486;2024-02-15T07:33:50;100983.78;;;13.62;100.00
71424;BME280;59240;51.370;-0.486;2024-02-15T07:38:49;100964.06;;;13.23;100.00
71424;BME280;59240;51.370;-0.486;2024-02-15T07:43:46;101007.00;;;13.45;100.00
71424;BME280;59240;51.370;-0.486;2024-02-15T07:48:43;101003.38;;;13.49;100.00
71424;BME280;59240;51.370;-0.486;2024-02-15T07:53:44;100965.88;;;13.21;100.00
71424;BME280;59240;51.370;-0.486;2024-02-15T07:58:46;100991.94;;;13.52;100.00
71424;BME280;59240;51.370;-0.486;2024-02-15T08:03:49;100953.41;;;13.29;100.00
71424;BME280;59240;51.370;-0.486;2024-02-15T08:08:47;100989.00;;;13.62;100.00
71424;BME280;59240;51.370;-0.486;2024-02-15T08:13:49;100990.78;;;13.62;100.00
71424;BME280;59240;51.370;-0.486;2024-02-15T08:18:47;100955.41;;;13.21;100.00
71424;BME280;59240;51.370;-0.486;2024-02-15T08:23:44;100976.63;;;13.39;100.00
71424;BME280;59240;51.370;-0.486;2024-02-15T08:28:40;100964.47;;;13.38;100.00
71424;BME280;59240;51.370;-0.486;2024-02-15T08:33:37;100964.41;;;13.40;100.00
71424;BME280;59240;51.370;-0.486;2024-02-15T08:38:36;100973.50;;;13.56;100.00
71424;BME280;59240;51.370;-0.486;2024-02-15T08:43:34;100953.41;;;13.57;100.00
71424;BME280;59240;51.370;-0.486;2024-02-15T08:48:31;100939.28;;;13.62;100.00
71424;BME280;59240;51.370;-0.486;2024-02-15T08:53:28;100924.34;;;13.64;100.00
71424;BME280;59240;51.370;-0.486;2024-02-15T08:58:25;100918.00;;;13.73;100.00
71424;BME280;59240;51.370;-0.486;2024-02-15T09:03:23;100911.59;;;13.82;100.00
71424;BME280;59240;51.370;-0.486;2024-02-15T09:08:20;100921.34;;;14.03;100.00
71424;BME280;59240;51.370;-0.486;2024-02-15T09:13:17;100906.53;;;14.02;100.00
71424;BME280;59240;51.370;-0.486;2024-02-15T09:18:14;100899.13;;;14.15;100.00
71424;BME280;59240;51.370;-0.486;2024-02-15T09:23:11;100894.72;;;14.15;100.00
71424;BME280;59240;51.370;-0.486;2024-02-15T09:28:08;100890.22;;;14.19;100.00
71424;BME280;59240;51.370;-0.486;2024-02-15T09:33:05;100904.53;;;14.34;100.00
71424;BME280;59240;51.370;-0.486;2024-02-15T09:38:02;100911.59;;;14.32;100.00
71424;BME280;59240;51.370;-0.486;2024-02-15T09:42:59;100874.69;;;14.38;100.00
71424;BME280;59240;51.370;-0.486;2024-02-15T09:48:00;100887.13;;;14.58;100.00
71424;BME280;59240;51.370;-0.486;2024-02-15T09:53:02;100892.22;;;14.61;100.00
71424;BME280;59240;51.370;-0.486;2024-02-15T09:58:00;100854.19;;;14.50;100.00
71424;BME280;59240;51.370;-0.486;2024-02-15T10:02:58;100845.09;;;14.59;100.00
71424;BME280;59240;51.370;-0.486;2024-02-15T10:07:58;100872.63;;;14.94;100.00
71424;BME280;59240;51.370;-0.486;2024-02-15T10:12:57;100852.69;;;15.12;100.00
71424;BME280;59240;51.370;-0.486;2024-02-15T10:17:58;100840.53;;;15.31;100.00
71424;BME280;59240;51.370;-0.486;2024-02-15T10:23:09;100850.34;;;15.48;100.00
71424;BME280;59240;51.370;-0.486;2024-02-15T10:28:14;100851.78;;;15.55;100.00
71424;BME280;59240;51.370;-0.486;2024-02-15T10:33:19;100849.00;;;15.60;100.00
71424;BME280;59240;51.370;-0.486;2024-02-15T10:38:17;100831.16;;;15.68;100.00
71424;BME280;59240;51.370;-0.486;2024-02-15T10:43:15;100834.56;;;15.70;100.00
71424;BME280;59240;51.370;-0.486;2024-02-15T10:48:13;100825.78;;;15.71;100.00
71424;BME280;59240;51.370;-0.486;2024-02-15T10:53:30;100817.09;;;15.69;100.00
71424;BME280;59240;51.370;-0.486;2024-02-15T10:58:32;100813.44;;;15.73;100.00
71424;BME280;59240;51.370;-0.486;2024-02-15T11:03:35;100811.19;;;15.84;100.00
71424;BME280;59240;51.370;-0.486;2024-02-15T11:08:34;100804.56;;;15.96;100.00
71424;BME280;59240;51.370;-0.486;2024-02-15T11:13:31;100807.78;;;16.03;100.00
71424;BME280;59240;51.370;-0.486;2024-02-15T11:18:47;100790.97;;;16.07;100.00
71424;BME280;59240;51.370;-0.486;2024-02-15T11:23:46;100770.25;;;16.20;100.00
71424;BME280;59240;51.370;-0.486;2024-02-15T11:28:43;100749.06;;;16.41;100.00
71424;BME280;59240;51.370;-0.486;2024-02-15T11:33:46;100736.28;;;16.72;100.00
71424;BME280;59240;51.370;-0.486;2024-02-15T11:38:43;100761.25;;;16.99;100.00
71424;BME280;59240;51.370;-0.486;2024-02-15T11:48:49;100730.50;;;17.69;100.00
71424;BME280;59240;51.370;-0.486;2024-02-15T11:54:07;100745.19;;;17.90;100.00
71424;BME280;59240;51.370;-0.486;2024-02-15T11:59:05;100747.59;;;17.95;100.00
71424;BME280;59240;51.370;-0.486;2024-02-15T12:04:04;100719.53;;;17.78;100.00
71424;BME280;59240;51.370;-0.486;2024-02-15T12:09:22;100690.38;;;17.64;99.51
71424;BME280;59240;51.370;-0.486;2024-02-15T12:14:37;100720.56;;;17.91;99.57
71424;BME280;59240;51.370;-0.486;2024-02-15T12:19:54;100696.06;;;17.89;100.00
71424;BME280;59240;51.370;-0.486;2024-02-15T12:24:59;100705.78;;;18.04;99.16
71424;BME280;59240;51.370;-0.486;2024-02-15T12:30:18;100698.81;;;18.03;90.74
71424;BME280;59240;51.370;-0.486;2024-02-15T12:35:22;100711.94;;;18.21;99.95
71424;BME280;59240;51.370;-0.486;2024-02-15T12:40:23;100671.63;;;18.35;97.34
71424;BME280;59240;51.370;-0.486;2024-02-15T12:45:21;100669.56;;;18.55;92.94
71424;BME280;59240;51.370;-0.486;2024-02-15T12:50:23;100697.03;;;18.83;97.79
71424;BME280;59240;51.370;-0.486;2024-02-15T12:55:21;100696.81;;;19.02;96.48
71424;BME280;59240;51.370;-0.486;2024-02-15T13:00:24;100683.06;;;19.11;96.98
71424;BME280;59240;51.370;-0.486;2024-02-15T13:05:26;100687.97;;;19.03;91.98
71424;BME280;59240;51.370;-0.486;2024-02-15T13:10:24;100624.09;;;18.66;90.62
71424;BME280;59240;51.370;-0.486;2024-02-15T13:15:22;100676.22;;;18.93;91.61
71424;BME280;59240;51.370;-0.486;2024-02-15T13:20:24;100671.69;;;18.80;92.26
71424;BME280;59240;51.370;-0.486;2024-02-15T13:25:29;100658.16;;;18.71;89.72
71424;BME280;59240;51.370;-0.486;2024-02-15T13:30:26;100643.69;;;18.46;90.43
71424;BME280;59240;51.370;-0.486;2024-02-15T13:35:27;100634.16;;;18.44;87.53
71424;BME280;59240;51.370;-0.486;2024-02-15T13:40:24;100609.66;;;18.42;83.89
71424;BME280;59240;51.370;-0.486;2024-02-15T13:45:27;100622.50;;;18.48;87.82
71424;BME280;59240;51.370;-0.486;2024-02-15T13:50:30;100617.50;;;18.43;82.86
71424;BME280;59240;51.370;-0.486;2024-02-15T13:55:27;100600.22;;;18.38;85.28
71424;BME280;59240;51.370;-0.486;2024-02-15T14:00:26;100551.25;;;18.18;83.36
71424;BME280;59240;51.370;-0.486;2024-02-15T14:05:34;100578.19;;;18.39;83.99
71424;BME280;59240;51.370;-0.486;2024-02-15T14:10:32;100584.13;;;18.42;85.30
71424;BME280;59240;51.370;-0.486;2024-02-15T14:15:32;100505.81;;;17.98;81.67
71424;BME280;59240;51.370;-0.486;2024-02-15T14:20:34;100554.22;;;18.12;77.30
71424;BME280;59240;51.370;-0.486;2024-02-15T14:25:32;100519.50;;;17.89;80.41
71424;BME280;59240;51.370;-0.486;2024-02-15T14:30:29;100546.84;;;18.02;79.61
71424;BME280;59240;51.370;-0.486;2024-02-15T14:35:44;100559.66;;;18.24;80.72
71424;BME280;59240;51.370;-0.486;2024-02-15T14:40:43;100547.41;;;18.39;80.67
71424;BME280;59240;51.370;-0.486;2024-02-15T14:45:42;100535.72;;;18.43;80.29
71424;BME280;59240;51.370;-0.486;2024-02-15T14:50:42;100541.31;;;18.53;78.02
71424;BME280;59240;51.370;-0.486;2024-02-15T14:55:40;100533.44;;;18.37;76.51
71424;BME280;59240;51.370;-0.486;2024-02-15T15:00:40;100492.75;;;18.11;78.53
71424;BME280;59240;51.370;-0.486;2024-02-15T15:05:39;100523.03;;;18.04;78.47
71424;BME280;59240;51.370;-0.486;2024-02-15T15:10:56;100516.53;;;17.80;78.24
71424;BME280;59240;51.370;-0.486;2024-02-15T15:16:12;100529.31;;;17.54;77.84
71424;BME280;59240;51.370;-0.486;2024-02-15T15:21:11;100561.53;;;17.59;78.44
71424;BME280;59240;51.370;-0.486;2024-02-15T15:26:08;100539.84;;;17.38;79.26
71424;BME280;59240;51.370;-0.486;2024-02-15T15:31:08;100572.66;;;17.48;79.19
71424;BME280;59240;51.370;-0.486;2024-02-15T15:36:05;100540.06;;;17.18;77.43
71424;BME280;59240;51.370;-0.486;2024-02-15T15:41:02;100547.53;;;17.10;76.12
71424;BME280;59240;51.370;-0.486;2024-02-15T15:46:00;100540.88;;;17.03;77.92
71424;BME280;59240;51.370;-0.486;2024-02-15T15:50:57;100506.56;;;16.88;78.11
71424;BME280;59240;51.370;-0.486;2024-02-15T15:55:56;100525.88;;;16.87;77.56
71424;BME280;59240;51.370;-0.486;2024-02-15T16:00:53;100524.66;;;16.77;77.96
71424;BME280;59240;51.370;-0.486;2024-02-15T16:05:51;100511.97;;;16.68;77.41
71424;BME280;59240;51.370;-0.486;2024-02-15T16:10:49;100497.66;;;16.39;77.21
71424;BME280;59240;51.370;-0.486;2024-02-15T16:15:45;100501.78;;;16.27;78.18
71424;BME280;59240;51.370;-0.486;2024-02-15T16:20:43;100496.19;;;16.16;78.56
71424;BME280;59240;51.370;-0.486;2024-02-15T16:25:42;100504.28;;;16.11;79.03
71424;BME280;59240;51.370;-0.486;2024-02-15T16:30:39;100517.50;;;16.10;79.26
71424;BME280;59240;51.370;-0.486;2024-02-15T16:35:36;100480.38;;;15.81;78.34
71424;BME280;59240;51.370;-0.486;2024-02-15T16:40:33;100482.53;;;15.73;79.02
71424;BME280;59240;51.370;-0.486;2024-02-15T16:45:30;100492.72;;;15.60;80.07
71424;BME280;59240;51.370;-0.486;2024-02-15T16:50:27;100514.44;;;15.64;79.74
71424;BME280;59240;51.370;-0.486;2024-02-15T16:55:24;100524.94;;;15.64;80.23
71424;BME280;59240;51.370;-0.486;2024-02-15T17:00:29;100507.91;;;15.54;80.70
71424;BME280;59240;51.370;-0.486;2024-02-15T17:05:27;100510.91;;;15.46;80.69
71424;BME280;59240;51.370;-0.486;2024-02-15T17:10:25;100509.47;;;15.39;80.88
71424;BME280;59240;51.370;-0.486;2024-02-15T17:15:22;100452.28;;;15.08;81.12
71424;BME280;59240;51.370;-0.486;2024-02-15T17:20:24;100476.72;;;15.10;81.12
71424;BME280;59240;51.370;-0.486;2024-02-15T17:25:22;100477.75;;;15.06;81.72
71424;BME280;59240;51.370;-0.486;2024-02-15T17:30:22;100465.34;;;14.91;82.12
71424;BME280;59240;51.370;-0.486;2024-02-15T17:35:21;100493.00;;;14.98;82.43
71424;BME280;59240;51.370;-0.486;2024-02-15T17:40:18;100459.72;;;14.80;82.59
71424;BME280;59240;51.370;-0.486;2024-02-15T17:45:15;100496.81;;;14.91;82.79
71424;BME280;59240;51.370;-0.486;2024-02-15T17:50:14;100485.16;;;14.77;83.00
71424;BME280;59240;51.370;-0.486;2024-02-15T17:55:12;100484.69;;;14.68;83.04
71424;BME280;59240;51.370;-0.486;2024-02-15T18:00:12;100514.19;;;14.73;83.33
71424;BME280;59240;51.370;-0.486;2024-02-15T18:05:13;100530.00;;;14.71;83.68
71424;BME280;59240;51.370;-0.486;2024-02-15T18:10:10;100509.72;;;14.34;83.45
71424;BME280;59240;51.370;-0.486;2024-02-15T18:15:09;100510.50;;;14.36;83.88
71424;BME280;59240;51.370;-0.486;2024-02-15T18:20:09;100548.19;;;14.54;85.52
71424;BME280;59240;51.370;-0.486;2024-02-15T18:25:09;100516.09;;;14.27;83.80
71424;BME280;59240;51.370;-0.486;2024-02-15T18:30:07;100515.25;;;14.27;83.87
71424;BME280;59240;51.370;-0.486;2024-02-15T18:35:09;100541.69;;;14.20;84.36
71424;BME280;59240;51.370;-0.486;2024-02-15T18:40:09;100526.66;;;14.04;84.75
71424;BME280;59240;51.370;-0.486;2024-02-15T18:45:20;100537.91;;;14.07;84.99
71424;BME280;59240;51.370;-0.486;2024-02-15T18:50:17;100518.34;;;13.94;85.42
71424;BME280;59240;51.370;-0.486;2024-02-15T18:55:17;100516.50;;;13.96;85.41
71424;BME280;59240;51.370;-0.486;2024-02-15T19:00:14;100505.81;;;13.80;85.47
71424;BME280;59240;51.370;-0.486;2024-02-15T19:05:29;100530.63;;;13.92;85.73
71424;BME280;59240;51.370;-0.486;2024-02-15T19:10:26;100548.84;;;13.95;85.82
71424;BME280;59240;51.370;-0.486;2024-02-15T19:15:23;100546.47;;;13.89;86.29
71424;BME280;59240;51.370;-0.486;2024-02-15T19:20:22;100532.88;;;13.79;86.39
71424;BME280;59240;51.370;-0.486;2024-02-15T19:25:19;100529.41;;;13.79;86.58
71424;BME280;59240;51.370;-0.486;2024-02-15T19:30:18;100540.31;;;13.90;86.58
71424;BME280;59240;51.370;-0.486;2024-02-15T19:35:17;100524.59;;;13.90;86.84
71424;BME280;59240;51.370;-0.486;2024-02-15T19:40:15;100488.03;;;13.66;87.05
71424;BME280;59240;51.370;-0.486;2024-02-15T19:45:17;100494.72;;;13.74;87.13
71424;BME280;59240;51.370;-0.486;2024-02-15T19:50:19;100492.44;;;13.64;86.91
71424;BME280;59240;51.370;-0.486;2024-02-15T19:55:18;100487.88;;;13.69;87.17
71424;BME280;59240;51.370;-0.486;2024-02-15T20:00:16;100498.91;;;13.78;87.10
71424;BME280;59240;51.370;-0.486;2024-02-15T20:05:14;100481.56;;;13.75;87.50
71424;BME280;59240;51.370;-0.486;2024-02-15T20:10:11;100474.00;;;13.67;87.54
71424;BME280;59240;51.370;-0.486;2024-02-15T20:15:09;100475.59;;;13.72;87.29
71424;BME280;59240;51.370;-0.486;2024-02-15T20:20:07;100491.03;;;13.78;87.38
71424;BME280;59240;51.370;-0.486;2024-02-15T20:25:05;100470.72;;;13.62;87.26
71424;BME280;59240;51.370;-0.486;2024-02-15T20:30:03;100462.09;;;13.60;87.57
71424;BME280;59240;51.370;-0.486;2024-02-15T20:35:01;100487.66;;;13.76;87.81
71424;BME280;59240;51.370;-0.486;2024-02-15T20:39:59;100479.13;;;13.71;87.84
71424;BME280;59240;51.370;-0.486;2024-02-15T20:44:56;100439.63;;;13.55;87.85
71424;BME280;59240;51.370;-0.486;2024-02-15T20:49:55;100474.56;;;13.76;87.65
71424;BME280;59240;51.370;-0.486;2024-02-15T20:54:53;100489.59;;;13.71;87.91
71424;BME280;59240;51.370;-0.486;2024-02-15T20:59:50;100479.34;;;13.64;87.91
71424;BME280;59240;51.370;-0.486;2024-02-15T21:04:47;100502.25;;;13.59;88.19
71424;BME280;59240;51.370;-0.486;2024-02-15T21:09:44;100464.19;;;13.29;88.49
71424;BME280;59240;51.370;-0.486;2024-02-15T21:14:42;100507.81;;;13.50;88.84
71424;BME280;59240;51.370;-0.486;2024-02-15T21:19:39;100528.75;;;13.50;88.94
71424;BME280;59240;51.370;-0.486;2024-02-15T21:24:36;100538.56;;;13.45;89.09
71424;BME280;59240;51.370;-0.486;2024-02-15T21:29:33;100493.38;;;13.17;88.85
71424;BME280;59240;51.370;-0.486;2024-02-15T21:34:32;100475.28;;;13.10;89.06
71424;BME280;59240;51.370;-0.486;2024-02-15T21:39:31;100532.88;;;13.34;89.17
71424;BME280;59240;51.370;-0.486;2024-02-15T21:44:31;100544.19;;;13.34;89.18
71424;BME280;59240;51.370;-0.486;2024-02-15T21:49:28;100554.03;;;13.28;89.59
71424;BME280;59240;51.370;-0.486;2024-02-15T21:54:25;100532.94;;;13.07;89.68
71424;BME280;59240;51.370;-0.486;2024-02-15T21:59:22;100548.19;;;13.20;89.78
71424;BME280;59240;51.370;-0.486;2024-02-15T22:04:19;100539.59;;;13.16;89.98
71424;BME280;59240;51.370;-0.486;2024-02-15T22:09:17;100527.78;;;13.06;90.23
71424;BME280;59240;51.370;-0.486;2024-02-15T22:14:13;100511.25;;;13.05;90.45
71424;BME280;59240;51.370;-0.486;2024-02-15T22:19:13;100523.19;;;13.12;90.60
71424;BME280;59240;51.370;-0.486;2024-02-15T22:24:10;100519.66;;;13.13;90.64
71424;BME280;59240;51.370;-0.486;2024-02-15T22:29:07;100513.44;;;13.16;90.88
71424;BME280;59240;51.370;-0.486;2024-02-15T22:34:04;100521.03;;;13.24;90.76
71424;BME280;59240;51.370;-0.486;2024-02-15T22:39:01;100502.88;;;13.19;90.79
71424;BME280;59240;51.370;-0.486;2024-02-15T22:44:00;100508.09;;;13.21;91.16
71424;BME280;59240;51.370;-0.486;2024-02-15T22:48:57;100512.41;;;13.22;91.13
71424;BME280;59240;51.370;-0.486;2024-02-15T22:53:54;100512.59;;;13.15;91.06
71424;BME280;59240;51.370;-0.486;2024-02-15T22:58:51;100514.19;;;13.20;91.04
71424;BME280;59240;51.370;-0.486;2024-02-15T23:03:48;100502.13;;;13.15;91.24
71424;BME280;59240;51.370;-0.486;2024-02-15T23:08:45;100481.66;;;13.03;91.33
71424;BME280;59240;51.370;-0.486;2024-02-15T23:13:43;100491.16;;;13.06;91.14
71424;BME280;59240;51.370;-0.486;2024-02-15T23:18:40;100507.25;;;13.19;91.33
71424;BME280;59240;51.370;-0.486;2024-02-15T23:23:37;100481.66;;;13.03;91.32
71424;BME280;59240;51.370;-0.486;2024-02-15T23:28:35;100460.59;;;12.84;91.47
71424;BME280;59240;51.370;-0.486;2024-02-15T23:33:31;100485.31;;;12.99;91.54
71424;BME280;59240;51.370;-0.486;2024-02-15T23:38:29;100494.00;;;13.00;91.38
71424;BME280;59240;51.370;-0.486;2024-02-15T23:43:44;100480.53;;;12.87;91.60
71424;BME280;59240;51.370;-0.486;2024-02-15T23:48:42;100526.72;;;13.11;92.02
71424;BME280;59240;51.370;-0.486;2024-02-15T23:53:39;100513.00;;;13.05;92.02
71424;BME280;59240;51.370;-0.486;2024-02-15T23:58:37;100545.59;;;13.20;92.32
